sensor_id;sensor_type;location;lat;lon;timestamp;temperature;humidity
1988;DHT22;12775;46.994;15.498;2023-04-25T00:00:02;12.20;99.90
1988;DHT22;12775;46.994;15.498;2023-04-25T00:02:29;12.10;99.90
1988;DHT22;12775;46.994;15.498;2023-04-25T00:04:57;12.20;99.90
1988;DHT22;12775;46.994;15.498;2023-04-25T00:07:24;12.30;99.90
1988;DHT22;12775;46.994;15.498;2023-04-25T00:09:51;12.20;99.90
1988;DHT22;12775;46.994;15.498;2023-04-25T00:12:18;12.20;99.90
1988;DHT22;12775;46.994;15.498;2023-04-25T00:14:46;12.20;99.90
1988;DHT22;12775;46.994;15.498;2023-04-25T00:17:15;12.20;99.90
1988;DHT22;12775;46.994;15.498;2023-04-25T00:19:42;12.20;99.90
1988;DHT22;12775;46.994;15.498;2023-04-25T00:22:09;12.20;99.90
1988;DHT22;12775;46.994;15.498;2023-04-25T00:24:36;12.20;99.90
1988;DHT22;12775;46.994;15.498;2023-04-25T00:27:04;12.20;99.90
1988;DHT22;12775;46.994;15.498;2023-04-25T00:29:32;12.20;99.90
1988;DHT22;12775;46.994;15.498;2023-04-25T00:31:59;12.20;99.90
1988;DHT22;12775;46.994;15.498;2023-04-25T00:34:27;12.30;99.90
1988;DHT22;12775;46.994;15.498;2023-04-25T00:36:54;12.30;99.90
1988;DHT22;12775;46.994;15.498;2023-04-25T00:39:22;12.30;99.90
1988;DHT22;12775;46.994;15.498;2023-04-25T00:41:50;12.30;99.90
1988;DHT22;12775;46.994;15.498;2023-04-25T00:44:17;12.30;99.90
1988;DHT22;12775;46.994;15.498;2023-04-25T00:46:45;12.30;99.90
1988;DHT22;12775;46.994;15.498;2023-04-25T00:49:12;12.30;99.90
1988;DHT22;12775;46.994;15.498;2023-04-25T00:51:39;12.30;99.90
1988;DHT22;12775;46.994;15.498;2023-04-25T00:54:06;12.40;99.90
1988;DHT22;12775;46.994;15.498;2023-04-25T00:56:34;12.40;99.90
1988;DHT22;12775;46.994;15.498;2023-04-25T00:59:01;12.40;99.90
1988;DHT22;12775;46.994;15.498;2023-04-25T01:01:29;12.40;99.90
1988;DHT22;12775;46.994;15.498;2023-04-25T01:03:56;12.50;99.90
1988;DHT22;12775;46.994;15.498;2023-04-25T01:06:23;12.50;99.90
1988;DHT22;12775;46.994;15.498;2023-04-25T01:08:49;12.50;99.90
1988;DHT22;12775;46.994;15.498;2023-04-25T01:11:16;12.50;99.90
1988;DHT22;12775;46.994;15.498;2023-04-25T01:13:43;12.50;99.90
1988;DHT22;12775;46.994;15.498;2023-04-25T01:16:11;12.50;99.90
1988;DHT22;12775;46.994;15.498;2023-04-25T01:18:39;12.50;99.90
1988;DHT22;12775;46.994;15.498;2023-04-25T01:21:08;12.60;99.90
1988;DHT22;12775;46.994;15.498;2023-04-25T01:23:35;12.60;99.90
1988;DHT22;12775;46.994;15.498;2023-04-25T01:26:02;12.60;99.90
1988;DHT22;12775;46.994;15.498;2023-04-25T01:28:29;12.60;99.90
1988;DHT22;12775;46.994;15.498;2023-04-25T01:30:56;12.60;99.90
1988;DHT22;12775;46.994;15.498;2023-04-25T01:33:22;12.50;99.60
1988;DHT22;12775;46.994;15.498;2023-04-25T01:35:50;12.50;99.30
1988;DHT22;12775;46.994;15.498;2023-04-25T01:38:18;12.40;99.10
1988;DHT22;12775;46.994;15.498;2023-04-25T01:40:45;12.40;99.10
1988;DHT22;12775;46.994;15.498;2023-04-25T01:43:13;12.30;98.90
1988;DHT22;12775;46.994;15.498;2023-04-25T01:45:41;12.30;98.50
1988;DHT22;12775;46.994;15.498;2023-04-25T01:48:09;12.30;98.70
1988;DHT22;12775;46.994;15.498;2023-04-25T01:50:38;12.20;98.40
1988;DHT22;12775;46.994;15.498;2023-04-25T01:53:04;12.10;98.40
1988;DHT22;12775;46.994;15.498;2023-04-25T01:55:31;12.00;98.80
1988;DHT22;12775;46.994;15.498;2023-04-25T01:57:59;12.00;99.10
1988;DHT22;12775;46.994;15.498;2023-04-25T02:00:26;11.80;97.60
1988;DHT22;12775;46.994;15.498;2023-04-25T02:02:53;11.80;98.00
1988;DHT22;12775;46.994;15.498;2023-04-25T02:05:22;11.70;98.50
1988;DHT22;12775;46.994;15.498;2023-04-25T02:07:48;11.70;98.50
1988;DHT22;12775;46.994;15.498;2023-04-25T02:10:16;11.60;97.90
1988;DHT22;12775;46.994;15.498;2023-04-25T02:12:42;11.60;97.90
1988;DHT22;12775;46.994;15.498;2023-04-25T02:15:10;11.50;97.20
1988;DHT22;12775;46.994;15.498;2023-04-25T02:17:37;11.50;97.00
1988;DHT22;12775;46.994;15.498;2023-04-25T02:20:05;11.40;97.10
1988;DHT22;12775;46.994;15.498;2023-04-25T02:22:33;11.30;97.50
1988;DHT22;12775;46.994;15.498;2023-04-25T02:25:00;11.20;97.60
1988;DHT22;12775;46.994;15.498;2023-04-25T02:27:27;11.20;96.50
1988;DHT22;12775;46.994;15.498;2023-04-25T02:29:55;11.10;96.40
1988;DHT22;12775;46.994;15.498;2023-04-25T02:32:22;11.00;96.60
1988;DHT22;12775;46.994;15.498;2023-04-25T02:34:50;11.00;96.00
1988;DHT22;12775;46.994;15.498;2023-04-25T02:37:17;10.90;96.50
1988;DHT22;12775;46.994;15.498;2023-04-25T02:39:44;10.90;97.10
1988;DHT22;12775;46.994;15.498;2023-04-25T02:42:12;10.80;96.90
1988;DHT22;12775;46.994;15.498;2023-04-25T02:44:40;10.80;98.20
1988;DHT22;12775;46.994;15.498;2023-04-25T02:47:07;10.70;98.90
1988;DHT22;12775;46.994;15.498;2023-04-25T02:49:35;10.70;99.20
1988;DHT22;12775;46.994;15.498;2023-04-25T02:52:02;10.70;99.20
1988;DHT22;12775;46.994;15.498;2023-04-25T02:54:29;10.70;99.20
1988;DHT22;12775;46.994;15.498;2023-04-25T02:56:56;10.60;99.90
1988;DHT22;12775;46.994;15.498;2023-04-25T02:59:23;10.60;99.90
1988;DHT22;12775;46.994;15.498;2023-04-25T03:01:51;10.50;99.90
1988;DHT22;12775;46.994;15.498;2023-04-25T03:04:18;10.50;99.90
1988;DHT22;12775;46.994;15.498;2023-04-25T03:06:46;10.50;99.90
1988;DHT22;12775;46.994;15.498;2023-04-25T03:09:13;10.50;99.90
1988;DHT22;12775;46.994;15.498;2023-04-25T03:11:41;10.50;99.90
1988;DHT22;12775;46.994;15.498;2023-04-25T03:14:08;10.50;99.90
1988;DHT22;12775;46.994;15.498;2023-04-25T03:16:36;10.50;99.90
1988;DHT22;12775;46.994;15.498;2023-04-25T03:19:03;10.50;99.90
1988;DHT22;12775;46.994;15.498;2023-04-25T03:21:31;10.50;99.90
1988;DHT22;12775;46.994;15.498;2023-04-25T03:23:58;10.50;99.90
1988;DHT22;12775;46.994;15.498;2023-04-25T03:26:24;10.50;99.90
1988;DHT22;12775;46.994;15.498;2023-04-25T03:28:51;10.50;99.90
1988;DHT22;12775;46.994;15.498;2023-04-25T03:31:18;10.60;99.90
1988;DHT22;12775;46.994;15.498;2023-04-25T03:33:47;10.60;99.90
1988;DHT22;12775;46.994;15.498;2023-04-25T03:36:15;10.50;99.90
1988;DHT22;12775;46.994;15.498;2023-04-25T03:38:42;10.60;99.90
1988;DHT22;12775;46.994;15.498;2023-04-25T03:41:10;10.60;99.90
1988;DHT22;12775;46.994;15.498;2023-04-25T03:43:37;10.50;99.90
1988;DHT22;12775;46.994;15.498;2023-04-25T03:46:04;10.50;99.90
1988;DHT22;12775;46.994;15.498;2023-04-25T03:48:32;10.50;99.90
1988;DHT22;12775;46.994;15.498;2023-04-25T03:50:59;10.40;99.90
1988;DHT22;12775;46.994;15.498;2023-04-25T03:53:27;10.20;99.90
1988;DHT22;12775;46.994;15.498;2023-04-25T03:55:55;10.20;99.90
1988;DHT22;12775;46.994;15.498;2023-04-25T03:58:22;10.10;99.90
1988;DHT22;12775;46.994;15.498;2023-04-25T04:00:50;9.90;99.90
1988;DHT22;12775;46.994;15.498;2023-04-25T04:03:18;9.80;99.90
1988;DHT22;12775;46.994;15.498;2023-04-25T04:05:46;9.90;99.90
1988;DHT22;12775;46.994;15.498;2023-04-25T04:08:12;9.80;99.90
1988;DHT22;12775;46.994;15.498;2023-04-25T04:10:40;9.80;99.90
1988;DHT22;12775;46.994;15.498;2023-04-25T04:13:08;9.70;99.90
1988;DHT22;12775;46.994;15.498;2023-04-25T04:15:36;9.70;99.90
1988;DHT22;12775;46.994;15.498;2023-04-25T04:18:03;9.70;99.90
1988;DHT22;12775;46.994;15.498;2023-04-25T04:20:30;9.70;99.90
1988;DHT22;12775;46.994;15.498;2023-04-25T04:22:59;9.70;99.90
1988;DHT22;12775;46.994;15.498;2023-04-25T04:25:26;9.70;99.90
1988;DHT22;12775;46.994;15.498;2023-04-25T04:27:54;9.80;99.90
1988;DHT22;12775;46.994;15.498;2023-04-25T04:30:22;9.80;99.90
1988;DHT22;12775;46.994;15.498;2023-04-25T04:32:49;9.80;99.90
1988;DHT22;12775;46.994;15.498;2023-04-25T04:35:17;9.80;99.90
1988;DHT22;12775;46.994;15.498;2023-04-25T04:37:44;9.80;99.90
1988;DHT22;12775;46.994;15.498;2023-04-25T04:40:12;9.80;99.90
1988;DHT22;12775;46.994;15.498;2023-04-25T04:42:39;9.90;99.90
1988;DHT22;12775;46.994;15.498;2023-04-25T04:45:07;10.00;99.90
1988;DHT22;12775;46.994;15.498;2023-04-25T04:47:35;9.90;99.90
1988;DHT22;12775;46.994;15.498;2023-04-25T04:50:02;9.90;99.90
1988;DHT22;12775;46.994;15.498;2023-04-25T04:52:29;9.90;99.90
1988;DHT22;12775;46.994;15.498;2023-04-25T04:54:56;9.90;99.90
1988;DHT22;12775;46.994;15.498;2023-04-25T04:57:24;9.90;99.90
1988;DHT22;12775;46.994;15.498;2023-04-25T04:59:50;9.90;99.90
1988;DHT22;12775;46.994;15.498;2023-04-25T05:02:17;10.00;99.90
1988;DHT22;12775;46.994;15.498;2023-04-25T05:04:44;10.10;99.90
1988;DHT22;12775;46.994;15.498;2023-04-25T05:07:12;10.10;99.90
1988;DHT22;12775;46.994;15.498;2023-04-25T05:09:39;10.10;99.90
1988;DHT22;12775;46.994;15.498;2023-04-25T05:12:07;10.10;99.90
1988;DHT22;12775;46.994;15.498;2023-04-25T05:14:34;10.10;99.90
1988;DHT22;12775;46.994;15.498;2023-04-25T05:17:01;10.20;99.90
1988;DHT22;12775;46.994;15.498;2023-04-25T05:19:29;10.20;99.90
1988;DHT22;12775;46.994;15.498;2023-04-25T05:21:56;10.20;99.90
1988;DHT22;12775;46.994;15.498;2023-04-25T05:24:23;10.20;99.90
1988;DHT22;12775;46.994;15.498;2023-04-25T05:26:50;10.20;99.90
1988;DHT22;12775;46.994;15.498;2023-04-25T05:29:17;10.10;99.90
1988;DHT22;12775;46.994;15.498;2023-04-25T05:31:46;10.10;99.90
1988;DHT22;12775;46.994;15.498;2023-04-25T05:34:13;10.10;99.90
1988;DHT22;12775;46.994;15.498;2023-04-25T05:36:41;10.10;99.90
1988;DHT22;12775;46.994;15.498;2023-04-25T05:39:08;10.20;99.90
1988;DHT22;12775;46.994;15.498;2023-04-25T05:41:36;10.30;99.90
1988;DHT22;12775;46.994;15.498;2023-04-25T05:44:03;10.40;99.90
1988;DHT22;12775;46.994;15.498;2023-04-25T05:46:32;10.60;99.90
1988;DHT22;12775;46.994;15.498;2023-04-25T05:49:00;10.40;99.90
1988;DHT22;12775;46.994;15.498;2023-04-25T05:51:29;10.50;99.90
1988;DHT22;12775;46.994;15.498;2023-04-25T05:53:56;10.60;99.90
1988;DHT22;12775;46.994;15.498;2023-04-25T05:56:24;10.70;99.90
1988;DHT22;12775;46.994;15.498;2023-04-25T05:58:51;10.80;99.90
1988;DHT22;12775;46.994;15.498;2023-04-25T06:01:18;10.80;99.90
1988;DHT22;12775;46.994;15.498;2023-04-25T06:03:45;10.80;99.90
1988;DHT22;12775;46.994;15.498;2023-04-25T06:06:12;11.10;99.90
1988;DHT22;12775;46.994;15.498;2023-04-25T06:08:39;11.00;99.90
1988;DHT22;12775;46.994;15.498;2023-04-25T06:11:07;11.10;99.90
1988;DHT22;12775;46.994;15.498;2023-04-25T06:13:34;11.30;99.90
1988;DHT22;12775;46.994;15.498;2023-04-25T06:16:02;11.40;99.90
1988;DHT22;12775;46.994;15.498;2023-04-25T06:18:29;11.50;99.90
1988;DHT22;12775;46.994;15.498;2023-04-25T06:20:58;11.50;99.90
1988;DHT22;12775;46.994;15.498;2023-04-25T06:23:26;11.70;99.90
1988;DHT22;12775;46.994;15.498;2023-04-25T06:25:54;12.10;99.90
1988;DHT22;12775;46.994;15.498;2023-04-25T06:28:20;12.00;99.90
1988;DHT22;12775;46.994;15.498;2023-04-25T06:30:48;12.70;99.90
1988;DHT22;12775;46.994;15.498;2023-04-25T06:33:15;12.90;99.90
1988;DHT22;12775;46.994;15.498;2023-04-25T06:35:42;12.80;99.90
1988;DHT22;12775;46.994;15.498;2023-04-25T06:38:08;13.10;99.90
1988;DHT22;12775;46.994;15.498;2023-04-25T06:40:36;13.30;99.90
1988;DHT22;12775;46.994;15.498;2023-04-25T06:43:02;13.20;99.90
1988;DHT22;12775;46.994;15.498;2023-04-25T06:45:31;13.50;99.90
1988;DHT22;12775;46.994;15.498;2023-04-25T06:47:58;13.50;99.90
1988;DHT22;12775;46.994;15.498;2023-04-25T06:50:26;13.90;99.90
1988;DHT22;12775;46.994;15.498;2023-04-25T06:52:53;14.00;99.90
1988;DHT22;12775;46.994;15.498;2023-04-25T06:55:20;14.30;99.90
1988;DHT22;12775;46.994;15.498;2023-04-25T06:57:50;14.30;99.90
1988;DHT22;12775;46.994;15.498;2023-04-25T07:00:18;14.70;99.90
1988;DHT22;12775;46.994;15.498;2023-04-25T07:02:45;14.90;98.50
1988;DHT22;12775;46.994;15.498;2023-04-25T07:05:12;14.80;97.10
1988;DHT22;12775;46.994;15.498;2023-04-25T07:07:40;15.10;97.70
1988;DHT22;12775;46.994;15.498;2023-04-25T07:10:07;15.40;96.90
1988;DHT22;12775;46.994;15.498;2023-04-25T07:12:34;15.40;96.80
1988;DHT22;12775;46.994;15.498;2023-04-25T07:15:01;16.10;95.90
1988;DHT22;12775;46.994;15.498;2023-04-25T07:17:29;16.30;96.60
1988;DHT22;12775;46.994;15.498;2023-04-25T07:19:56;16.60;93.70
1988;DHT22;12775;46.994;15.498;2023-04-25T07:22:23;16.80;89.40
1988;DHT22;12775;46.994;15.498;2023-04-25T07:24:51;17.00;89.90
1988;DHT22;12775;46.994;15.498;2023-04-25T07:27:19;17.00;88.60
1988;DHT22;12775;46.994;15.498;2023-04-25T07:29:47;17.30;93.90
1988;DHT22;12775;46.994;15.498;2023-04-25T07:32:13;17.30;93.60
1988;DHT22;12775;46.994;15.498;2023-04-25T07:34:40;17.60;92.10
1988;DHT22;12775;46.994;15.498;2023-04-25T07:37:08;17.70;90.80
1988;DHT22;12775;46.994;15.498;2023-04-25T07:39:35;18.00;92.00
1988;DHT22;12775;46.994;15.498;2023-04-25T07:42:03;18.20;91.10
1988;DHT22;12775;46.994;15.498;2023-04-25T07:44:30;18.20;91.20
1988;DHT22;12775;46.994;15.498;2023-04-25T07:46:58;18.70;90.30
1988;DHT22;12775;46.994;15.498;2023-04-25T07:49:25;19.00;91.30
1988;DHT22;12775;46.994;15.498;2023-04-25T07:51:55;19.10;90.40
1988;DHT22;12775;46.994;15.498;2023-04-25T07:54:21;19.10;90.40
1988;DHT22;12775;46.994;15.498;2023-04-25T07:56:50;19.50;90.10
1988;DHT22;12775;46.994;15.498;2023-04-25T07:59:17;19.70;88.40
1988;DHT22;12775;46.994;15.498;2023-04-25T08:01:44;19.90;89.30
1988;DHT22;12775;46.994;15.498;2023-04-25T08:04:14;20.00;90.10
1988;DHT22;12775;46.994;15.498;2023-04-25T08:06:42;19.90;83.90
1988;DHT22;12775;46.994;15.498;2023-04-25T08:09:10;20.10;87.80
1988;DHT22;12775;46.994;15.498;2023-04-25T08:11:38;20.10;82.40
1988;DHT22;12775;46.994;15.498;2023-04-25T08:14:05;20.40;81.70
1988;DHT22;12775;46.994;15.498;2023-04-25T08:16:33;20.60;87.30
1988;DHT22;12775;46.994;15.498;2023-04-25T08:19:00;20.50;86.50
1988;DHT22;12775;46.994;15.498;2023-04-25T08:21:27;20.90;73.10
1988;DHT22;12775;46.994;15.498;2023-04-25T08:23:54;21.00;70.10
1988;DHT22;12775;46.994;15.498;2023-04-25T08:26:22;21.30;70.20
1988;DHT22;12775;46.994;15.498;2023-04-25T08:28:49;21.40;74.70
1988;DHT22;12775;46.994;15.498;2023-04-25T08:31:17;21.50;73.20
1988;DHT22;12775;46.994;15.498;2023-04-25T08:33:43;21.40;73.00
1988;DHT22;12775;46.994;15.498;2023-04-25T08:36:10;21.50;71.60
1988;DHT22;12775;46.994;15.498;2023-04-25T08:38:36;21.50;72.40
1988;DHT22;12775;46.994;15.498;2023-04-25T08:41:04;21.70;78.10
1988;DHT22;12775;46.994;15.498;2023-04-25T08:43:31;21.80;68.40
1988;DHT22;12775;46.994;15.498;2023-04-25T08:45:59;21.80;68.30
1988;DHT22;12775;46.994;15.498;2023-04-25T08:48:27;21.80;61.80
1988;DHT22;12775;46.994;15.498;2023-04-25T08:50:55;21.80;59.30
1988;DHT22;12775;46.994;15.498;2023-04-25T08:53:26;21.60;57.00
1988;DHT22;12775;46.994;15.498;2023-04-25T08:55:54;21.70;57.50
1988;DHT22;12775;46.994;15.498;2023-04-25T08:58:22;21.70;69.70
1988;DHT22;12775;46.994;15.498;2023-04-25T09:00:51;21.60;63.50
1988;DHT22;12775;46.994;15.498;2023-04-25T09:03:18;21.60;64.50
1988;DHT22;12775;46.994;15.498;2023-04-25T09:05:46;21.40;58.00
1988;DHT22;12775;46.994;15.498;2023-04-25T09:08:13;21.50;62.50
1988;DHT22;12775;46.994;15.498;2023-04-25T09:10:41;21.40;57.60
1988;DHT22;12775;46.994;15.498;2023-04-25T09:13:11;21.20;57.40
1988;DHT22;12775;46.994;15.498;2023-04-25T09:15:47;21.00;65.60
1988;DHT22;12775;46.994;15.498;2023-04-25T09:18:12;21.00;65.60
1988;DHT22;12775;46.994;15.498;2023-04-25T09:20:42;21.00;57.70
1988;DHT22;12775;46.994;15.498;2023-04-25T09:23:09;20.80;58.60
1988;DHT22;12775;46.994;15.498;2023-04-25T09:25:36;20.70;61.20
1988;DHT22;12775;46.994;15.498;2023-04-25T09:28:04;20.70;61.30
1988;DHT22;12775;46.994;15.498;2023-04-25T09:30:31;20.50;68.20
1988;DHT22;12775;46.994;15.498;2023-04-25T09:33:03;20.60;71.50
1988;DHT22;12775;46.994;15.498;2023-04-25T09:35:25;20.70;69.90
1988;DHT22;12775;46.994;15.498;2023-04-25T09:37:52;20.80;60.70
1988;DHT22;12775;46.994;15.498;2023-04-25T09:40:21;21.00;71.50
1988;DHT22;12775;46.994;15.498;2023-04-25T09:42:48;21.30;62.60
1988;DHT22;12775;46.994;15.498;2023-04-25T09:45:16;21.50;70.90
1988;DHT22;12775;46.994;15.498;2023-04-25T09:47:43;21.70;72.70
1988;DHT22;12775;46.994;15.498;2023-04-25T09:50:15;21.80;72.70
1988;DHT22;12775;46.994;15.498;2023-04-25T09:52:42;22.10;67.90
1988;DHT22;12775;46.994;15.498;2023-04-25T09:55:09;22.20;59.60
1988;DHT22;12775;46.994;15.498;2023-04-25T09:57:37;22.30;61.80
1988;DHT22;12775;46.994;15.498;2023-04-25T10:00:06;22.40;69.20
1988;DHT22;12775;46.994;15.498;2023-04-25T10:02:33;22.40;69.20
1988;DHT22;12775;46.994;15.498;2023-04-25T10:05:02;22.40;66.00
1988;DHT22;12775;46.994;15.498;2023-04-25T10:07:30;22.50;67.30
1988;DHT22;12775;46.994;15.498;2023-04-25T10:10:00;22.50;66.30
1988;DHT22;12775;46.994;15.498;2023-04-25T10:12:28;22.50;65.70
1988;DHT22;12775;46.994;15.498;2023-04-25T10:14:54;22.60;68.70
1988;DHT22;12775;46.994;15.498;2023-04-25T10:17:21;22.70;61.20
1988;DHT22;12775;46.994;15.498;2023-04-25T10:19:48;22.70;66.70
1988;DHT22;12775;46.994;15.498;2023-04-25T10:22:21;22.20;64.80
1988;DHT22;12775;46.994;15.498;2023-04-25T10:24:46;22.40;68.50
1988;DHT22;12775;46.994;15.498;2023-04-25T10:27:13;22.50;66.50
1988;DHT22;12775;46.994;15.498;2023-04-25T10:29:41;22.70;66.00
1988;DHT22;12775;46.994;15.498;2023-04-25T10:32:09;23.00;61.70
1988;DHT22;12775;46.994;15.498;2023-04-25T10:34:42;23.10;57.70
1988;DHT22;12775;46.994;15.498;2023-04-25T10:37:10;23.30;57.10
1988;DHT22;12775;46.994;15.498;2023-04-25T10:39:38;23.30;57.10
1988;DHT22;12775;46.994;15.498;2023-04-25T10:42:04;23.50;59.40
1988;DHT22;12775;46.994;15.498;2023-04-25T10:44:31;23.50;59.90
1988;DHT22;12775;46.994;15.498;2023-04-25T10:46:59;23.50;62.20
1988;DHT22;12775;46.994;15.498;2023-04-25T10:49:31;23.50;62.10
1988;DHT22;12775;46.994;15.498;2023-04-25T10:54:39;24.10;52.50
1988;DHT22;12775;46.994;15.498;2023-04-25T10:57:03;24.10;62.40
1988;DHT22;12775;46.994;15.498;2023-04-25T10:59:30;24.00;57.40
1988;DHT22;12775;46.994;15.498;2023-04-25T11:01:58;23.90;59.90
1988;DHT22;12775;46.994;15.498;2023-04-25T11:04:33;24.00;64.20
1988;DHT22;12775;46.994;15.498;2023-04-25T11:07:21;24.00;58.40
1988;DHT22;12775;46.994;15.498;2023-04-25T11:09:44;24.00;62.50
1988;DHT22;12775;46.994;15.498;2023-04-25T11:12:11;24.00;54.90
1988;DHT22;12775;46.994;15.498;2023-04-25T11:14:38;24.00;54.80
1988;DHT22;12775;46.994;15.498;2023-04-25T11:17:05;23.40;56.30
1988;DHT22;12775;46.994;15.498;2023-04-25T11:19:33;23.40;54.70
1988;DHT22;12775;46.994;15.498;2023-04-25T11:22:00;23.60;56.70
1988;DHT22;12775;46.994;15.498;2023-04-25T11:24:30;23.30;54.70
1988;DHT22;12775;46.994;15.498;2023-04-25T11:26:58;23.30;59.10
1988;DHT22;12775;46.994;15.498;2023-04-25T11:29:27;23.50;52.50
1988;DHT22;12775;46.994;15.498;2023-04-25T11:31:54;23.50;58.00
1988;DHT22;12775;46.994;15.498;2023-04-25T11:34:21;23.70;58.20
1988;DHT22;12775;46.994;15.498;2023-04-25T11:36:49;23.40;51.00
1988;DHT22;12775;46.994;15.498;2023-04-25T11:39:16;23.20;51.90
1988;DHT22;12775;46.994;15.498;2023-04-25T11:41:43;22.80;49.80
1988;DHT22;12775;46.994;15.498;2023-04-25T11:44:11;22.70;50.50
1988;DHT22;12775;46.994;15.498;2023-04-25T11:46:38;22.50;49.60
1988;DHT22;12775;46.994;15.498;2023-04-25T11:49:05;22.10;49.60
1988;DHT22;12775;46.994;15.498;2023-04-25T11:51:40;21.80;51.30
1988;DHT22;12775;46.994;15.498;2023-04-25T11:54:06;21.80;51.30
1988;DHT22;12775;46.994;15.498;2023-04-25T11:56:33;21.90;52.30
1988;DHT22;12775;46.994;15.498;2023-04-25T11:59:04;21.70;55.30
1988;DHT22;12775;46.994;15.498;2023-04-25T12:01:34;21.40;50.60
1988;DHT22;12775;46.994;15.498;2023-04-25T12:04:11;21.40;50.70
1988;DHT22;12775;46.994;15.498;2023-04-25T12:06:38;20.20;55.70
1988;DHT22;12775;46.994;15.498;2023-04-25T12:09:04;20.10;55.70
1988;DHT22;12775;46.994;15.498;2023-04-25T12:11:31;19.50;65.60
1988;DHT22;12775;46.994;15.498;2023-04-25T12:14:03;19.30;68.50
1988;DHT22;12775;46.994;15.498;2023-04-25T12:16:39;19.10;65.10
1988;DHT22;12775;46.994;15.498;2023-04-25T12:18:57;19.00;70.20
1988;DHT22;12775;46.994;15.498;2023-04-25T12:21:27;18.70;68.00
1988;DHT22;12775;46.994;15.498;2023-04-25T12:23:53;18.70;68.10
1988;DHT22;12775;46.994;15.498;2023-04-25T12:26:21;18.40;65.60
1988;DHT22;12775;46.994;15.498;2023-04-25T12:28:48;17.90;66.10
1988;DHT22;12775;46.994;15.498;2023-04-25T12:31:15;17.70;66.10
1988;DHT22;12775;46.994;15.498;2023-04-25T12:33:42;17.70;66.10
1988;DHT22;12775;46.994;15.498;2023-04-25T12:36:09;17.60;66.90
1988;DHT22;12775;46.994;15.498;2023-04-25T12:38:38;17.30;69.30
1988;DHT22;12775;46.994;15.498;2023-04-25T12:41:05;16.90;70.70
1988;DHT22;12775;46.994;15.498;2023-04-25T12:43:32;16.60;76.10
1988;DHT22;12775;46.994;15.498;2023-04-25T12:46:00;16.60;78.30
1988;DHT22;12775;46.994;15.498;2023-04-25T12:48:27;16.60;77.10
1988;DHT22;12775;46.994;15.498;2023-04-25T12:50:54;16.50;77.80
1988;DHT22;12775;46.994;15.498;2023-04-25T12:53:21;16.70;76.10
1988;DHT22;12775;46.994;15.498;2023-04-25T12:55:48;16.90;77.00
1988;DHT22;12775;46.994;15.498;2023-04-25T12:58:15;16.90;77.00
1988;DHT22;12775;46.994;15.498;2023-04-25T13:00:41;17.00;76.50
1988;DHT22;12775;46.994;15.498;2023-04-25T13:03:08;16.90;76.10
1988;DHT22;12775;46.994;15.498;2023-04-25T13:05:35;17.10;75.60
1988;DHT22;12775;46.994;15.498;2023-04-25T13:08:02;17.40;74.60
1988;DHT22;12775;46.994;15.498;2023-04-25T13:10:30;17.70;78.00
1988;DHT22;12775;46.994;15.498;2023-04-25T13:12:57;17.80;73.60
1988;DHT22;12775;46.994;15.498;2023-04-25T13:15:25;17.70;72.40
1988;DHT22;12775;46.994;15.498;2023-04-25T13:17:52;17.80;69.20
1988;DHT22;12775;46.994;15.498;2023-04-25T13:20:19;17.90;71.90
1988;DHT22;12775;46.994;15.498;2023-04-25T13:22:47;18.20;70.70
1988;DHT22;12775;46.994;15.498;2023-04-25T13:25:14;18.40;69.30
1988;DHT22;12775;46.994;15.498;2023-04-25T13:27:41;18.40;69.30
1988;DHT22;12775;46.994;15.498;2023-04-25T13:30:08;18.80;66.60
1988;DHT22;12775;46.994;15.498;2023-04-25T13:32:37;18.90;61.40
1988;DHT22;12775;46.994;15.498;2023-04-25T13:35:05;19.20;73.90
1988;DHT22;12775;46.994;15.498;2023-04-25T13:37:32;19.40;72.50
1988;DHT22;12775;46.994;15.498;2023-04-25T13:40:00;19.60;75.20
1988;DHT22;12775;46.994;15.498;2023-04-25T13:42:27;19.50;74.80
1988;DHT22;12775;46.994;15.498;2023-04-25T13:44:53;19.60;74.30
1988;DHT22;12775;46.994;15.498;2023-04-25T13:47:21;19.40;67.50
1988;DHT22;12775;46.994;15.498;2023-04-25T13:49:47;19.40;67.60
1988;DHT22;12775;46.994;15.498;2023-04-25T13:52:15;19.70;73.60
1988;DHT22;12775;46.994;15.498;2023-04-25T13:54:42;19.70;73.10
1988;DHT22;12775;46.994;15.498;2023-04-25T13:57:10;19.60;67.00
1988;DHT22;12775;46.994;15.498;2023-04-25T13:59:37;19.70;70.20
1988;DHT22;12775;46.994;15.498;2023-04-25T14:02:04;19.60;73.60
1988;DHT22;12775;46.994;15.498;2023-04-25T14:04:32;19.80;67.00
1988;DHT22;12775;46.994;15.498;2023-04-25T14:06:59;19.80;63.50
1988;DHT22;12775;46.994;15.498;2023-04-25T14:09:26;19.80;70.10
1988;DHT22;12775;46.994;15.498;2023-04-25T14:11:54;19.80;68.20
1988;DHT22;12775;46.994;15.498;2023-04-25T14:14:21;19.80;68.20
1988;DHT22;12775;46.994;15.498;2023-04-25T14:16:48;20.00;73.00
1988;DHT22;12775;46.994;15.498;2023-04-25T14:19:15;20.00;73.60
1988;DHT22;12775;46.994;15.498;2023-04-25T14:21:43;20.00;73.60
1988;DHT22;12775;46.994;15.498;2023-04-25T14:24:10;20.10;69.20
1988;DHT22;12775;46.994;15.498;2023-04-25T14:26:38;20.10;72.40
1988;DHT22;12775;46.994;15.498;2023-04-25T14:29:06;20.20;71.70
1988;DHT22;12775;46.994;15.498;2023-04-25T14:31:33;20.10;62.20
1988;DHT22;12775;46.994;15.498;2023-04-25T14:34:01;20.30;66.70
1988;DHT22;12775;46.994;15.498;2023-04-25T14:36:29;20.20;62.90
1988;DHT22;12775;46.994;15.498;2023-04-25T14:38:57;20.30;69.50
1988;DHT22;12775;46.994;15.498;2023-04-25T14:41:25;20.40;69.80
1988;DHT22;12775;46.994;15.498;2023-04-25T14:43:53;20.40;68.70
1988;DHT22;12775;46.994;15.498;2023-04-25T14:46:20;20.50;70.30
1988;DHT22;12775;46.994;15.498;2023-04-25T14:48:47;20.50;68.10
1988;DHT22;12775;46.994;15.498;2023-04-25T14:51:15;20.40;64.60
1988;DHT22;12775;46.994;15.498;2023-04-25T14:53:42;20.50;68.60
1988;DHT22;12775;46.994;15.498;2023-04-25T14:56:09;20.20;65.80
1988;DHT22;12775;46.994;15.498;2023-04-25T14:58:37;20.30;66.50
1988;DHT22;12775;46.994;15.498;2023-04-25T15:01:04;20.30;68.00
1988;DHT22;12775;46.994;15.498;2023-04-25T15:03:32;20.20;66.30
1988;DHT22;12775;46.994;15.498;2023-04-25T15:05:59;20.10;66.70
1988;DHT22;12775;46.994;15.498;2023-04-25T15:08:27;19.80;67.10
1988;DHT22;12775;46.994;15.498;2023-04-25T15:10:55;19.60;68.10
1988;DHT22;12775;46.994;15.498;2023-04-25T15:13:22;19.50;68.30
1988;DHT22;12775;46.994;15.498;2023-04-25T15:15:49;19.20;68.90
1988;DHT22;12775;46.994;15.498;2023-04-25T15:18:19;19.10;68.70
1988;DHT22;12775;46.994;15.498;2023-04-25T15:20:45;19.00;71.70
1988;DHT22;12775;46.994;15.498;2023-04-25T15:23:13;19.10;71.40
1988;DHT22;12775;46.994;15.498;2023-04-25T15:25:40;19.10;71.40
1988;DHT22;12775;46.994;15.498;2023-04-25T15:28:07;19.20;71.30
1988;DHT22;12775;46.994;15.498;2023-04-25T15:30:35;19.10;71.60
1988;DHT22;12775;46.994;15.498;2023-04-25T15:33:02;18.90;69.60
1988;DHT22;12775;46.994;15.498;2023-04-25T15:35:29;18.90;69.70